Buena Esperanza, Argentina
Current Conditions -  °F | °C
As of 3:00 AM on Saturday 01 Nov 2014 (Local Time) from SAOC Reporting Station
Light Rain Light Rain  
Wind Chill: 55°   Ceiling: 500
Heat Index: 55°   Visibility: 2.5mi
Dew Point: 55°   Wind: 13mph
Humidity: 100%   Direction: 90°E
Pressure: 30.09"   Gusts: NA
Location:  34.75°S, 65.25°W
Report Text: SAOC 010600Z 09011KT 4000 -RA BKN005 OVC045 13/13 Q1019
Loading
Personal Weather Stations






























Interactive Weather Map New forecast layout! Learn more

10-Day Weather Forecast

Advertisements
Track Severe Weather on mobile